This is the latest recevied weather packets stored in our database for station/object OH1KK. If no packets are shown the sender has not sent any weather packets the latest 10 day(s).
| Time | Temp. | Humidity | Pressure | Rain* | Wind** | Luminosity | Snow |
|---|---|---|---|---|---|---|---|
| 1777638853 | 17.22° C | 41% | 1007.2 hPa | 0 mm | - | - | - |
| 1777637999 | 17.22° C | 41% | 1007.5 hPa | 0 mm | - | - | - |
| 1777637084 | 17.22° C | 41% | 1007.7 hPa | 0 mm | - | - | - |
| 1777636168 | 17.22° C | 42% | 1007.6 hPa | 0 mm | - | - | - |
| 1777633484 | 17.22° C | 40% | 1007.8 hPa | 0 mm | - | - | - |
| 1777632570 | 16.67° C | 41% | 1008.1 hPa | 0 mm | - | - | - |
| 1777631655 | 16.67° C | 39% | 1008.1 hPa | 0 mm | - | - | - |
| 1777629885 | 16.11° C | 38% | 1008.2 hPa | 0 mm | - | - | - |
| 1777628971 | 16.11° C | 38% | 1008.4 hPa | 0 mm | - | - | - |
| 1777627141 | 15° C | 45% | 1008.9 hPa | 0 mm | - | - | - |
| 1777626287 | 13.89° C | 47% | 1008.9 hPa | 0 mm | - | - | - |
| 1777625372 | 13.89° C | 49% | 1009.2 hPa | 0 mm | - | - | - |
| 1777624457 | 13.33° C | 52% | 1009.2 hPa | 0 mm | - | - | - |
| 1777623542 | 12.78° C | 55% | 1009.6 hPa | 0 mm | - | - | - |
| 1777622688 | 12.22° C | 58% | 1009.5 hPa | 0 mm | - | - | - |
| 1777621773 | 12.22° C | 59% | 1009.5 hPa | 0 mm | - | - | - |
| 1777619943 | 11.11° C | 64% | 1009.9 hPa | 0 mm | - | - | - |
| 1777619089 | 10.56° C | 65% | 1010 hPa | 0 mm | - | - | - |
| 1777618174 | 9.44° C | 67% | 1010 hPa | 0 mm | - | - | - |
| 1777615489 | 8.33° C | 72% | 1010.1 hPa | 0 mm | - | - | - |
| 1777614575 | 7.78° C | 74% | 1009.9 hPa | 0 mm | - | - | - |
| 1777613663 | 7.22° C | 76% | 1010.2 hPa | 0 mm | - | - | - |
| 1777612745 | 7.22° C | 77% | 1010 hPa | 0 mm | - | - | - |
| 1777610976 | 6.11° C | 81% | 1010.2 hPa | 0 mm | - | - | - |
| 1777609145 | 3.89° C | 90% | 1010.4 hPa | 0 mm | - | - | - |
* Rain latest hour (hover to see other rain measurements)
** Current wind speed in m/s (hover to see current wind gust speed)